Kankakee, IL

1:40 PM CDT on July 02, 2015 (GMT -0500)
Quail hallow | | Change Station
CLOSE
Current Station
Personal Weather Station
Location: Bradley, IL
Elevation: 669 ft
Nearby Weather Stations

Elev 669 ft 41.16 °N, 87.84 °W | Updated 5 minutes ago

Partly Cloudy
Partly Cloudy
74.3 °F
Feels Like 77 °F
N
8.3
Wind Variable Wind from NNW

Today
High -- | Low -- °F
--% Chance of Precip.
Yesterday
High -- | Low -- °F
Precip. -- in
5:23 AM 8:27 PM
Waxing Gibbous, 99% visible
Pressure 29.97 in
Visibility 10.0 miles
Clouds Mostly Cloudy 2500 ft
Heat Index 77 °F
Dew Point 60 °F
Humidity 61%
Rainfall 0.00 in
Snow Depth Not available.
UV 5 out of 12
Pollen 3.30 out of 12
Air Quality Not available.
Flu Activity Not available.
METAR KIKK 021559Z AUTO 06011KT 10SM BKN025 20/14 A2997 RMK AO2

More Conditions Fewer Conditions

Pressure 29.97 in
Visibility 10.0 miles
Clouds Mostly Cloudy 2500 ft
Heat Index 77 °F
Dew Point 60 °F
Humidity 61%
Rainfall 0.00 in
Snow Depth Not available.
UV 5 out of 12
Pollen 3.30 out of 12
Air Quality Not available.
Flu Activity Not available.
METAR KIKK 021559Z AUTO 06011KT 10SM BKN025 20/14 A2997 RMK AO2

More Conditions Fewer Conditions

10-Day Weather Forecast

×

Almanac

Astronomy

Jul. 02, 2015 Rise Set
Actual Time
Civil Twilight
Nautical Twilight
Astronomical Twilight
Moon
Length of Visible Light
Length of Day
Tomorrow will be .
, % of the Moon is Illuminated

Today's Extremes

State Highs State Lows

Community

WunderPhotos

Upload Photos

1,834,516 photos uploaded!

WunderBlogs® & News

Nearby

Air Quality

  Air Quality AQ Index Pollutant
Not available.

Snow Depth

Station Depth Elevation

Earthquake Activity

City Distance Mag. Time & Date
Minimum magnitude displayed is 2.5.

Coastal Water Temperatures

Place Temperature

Stations

Nearby Weather Stations

Station Location Temp. Windchill Dew Point Humidity Wind Precip. Elev Updated Type